Time;durP1;ratioP1;P1;durP2;ratioP2;P2;SDS_P1;SDS_P2;PMS_P1;PMS_P2;Temp;Humidity;BMP_temperature;BMP_pressure;BME280_temperature;BME280_humidity;BME280_pressure;Samples;Min_cycle;Max_cycle;Signal;HPM_P1;HPM_P2
2021/06/25 00:01:50;;;;;;;7.18;3.15;;;;;;;21.36;83.09;93269.66;5088583;28;20109;-88
2021/06/25 00:04:17;;;;;;;6.18;2.85;;;;;;;21.79;83.34;93332.81;5087287;28;20048;-89
2021/06/25 00:06:45;;;;;;;6.97;3.30;;;;;;;21.23;83.28;93260.63;5085968;28;20049;-89
2021/06/25 00:09:12;;;;;;;5.80;3.40;;;;;;;21.72;83.78;93343.59;5087000;28;20496;-90
2021/06/25 00:11:39;;;;;;;9.60;2.92;;;;;;;21.69;83.74;93328.41;5089138;28;20149;-89
2021/06/25 00:14:06;;;;;;;7.25;3.65;;;;;;;21.54;84.52;93317.06;5089191;28;20052;-89
2021/06/25 00:16:34;;;;;;;6.47;2.72;;;;;;;21.62;84.94;93341.81;5088480;28;20048;-89
2021/06/25 00:19:01;;;;;;;7.80;3.55;;;;;;;21.22;84.62;93290.44;5088558;28;20048;-90
2021/06/25 00:21:28;;;;;;;8.25;4.03;;;;;;;21.55;84.83;93328.28;5089487;28;20500;-90
2021/06/25 00:23:56;;;;;;;8.10;4.10;;;;;;;21.43;84.66;93315.59;5088599;28;20079;-90
2021/06/25 00:26:23;;;;;;;6.38;3.33;;;;;;;21.49;86.10;93340.63;5089096;28;20048;-90
2021/06/25 00:28:50;;;;;;;6.68;2.83;;;;;;;21.43;85.88;93339.09;5088838;28;20056;-89
2021/06/25 00:31:17;;;;;;;5.65;2.88;;;;;;;20.70;85.91;93233.31;5088894;28;20044;-89
2021/06/25 00:33:44;;;;;;;9.27;3.60;;;;;;;21.01;87.03;93295.00;5089090;28;20048;-90
2021/06/25 00:36:11;;;;;;;7.78;3.47;;;;;;;21.21;89.51;93348.16;5090466;28;20048;-90
2021/06/25 00:38:38;;;;;;;6.43;2.58;;;;;;;21.13;88.59;93341.69;5088631;28;20048;-90
2021/06/25 00:41:06;;;;;;;6.22;3.40;;;;;;;20.91;89.63;93311.53;5089160;28;20075;-90
2021/06/25 00:43:33;;;;;;;6.30;3.05;;;;;;;20.80;89.19;93291.75;5088663;28;20052;-90
2021/06/25 00:46:00;;;;;;;8.00;3.75;;;;;;;20.86;88.73;93297.72;5088591;28;20516;-89
2021/06/25 00:48:27;;;;;;;8.18;3.88;;;;;;;21.09;89.77;93349.28;5089033;28;20074;-90
2021/06/25 00:50:54;;;;;;;7.47;4.03;;;;;;;21.12;89.40;93352.41;5088976;28;20169;-89
2021/06/25 00:53:21;;;;;;;8.40;3.65;;;;;;;21.07;89.65;93361.81;5089619;28;20056;-89
2021/06/25 00:55:47;;;;;;;6.72;2.83;;;;;;;20.90;88.63;93337.91;5089306;28;20054;-90
2021/06/25 00:58:18;;;;;;;10.63;5.63;;;;;;;20.58;88.74;93294.72;5089143;28;20048;-89
2021/06/25 01:00:45;;;;;;;5.15;3.35;;;;;;;20.99;89.05;93346.75;5089076;28;20158;-89
2021/06/25 01:03:13;;;;;;;7.70;3.17;;;;;;;20.54;88.87;93286.66;5088669;28;20063;-90
2021/06/25 01:05:40;;;;;;;6.35;3.13;;;;;;;20.49;88.78;93281.47;5089056;28;20048;-90
2021/06/25 01:08:08;;;;;;;7.80;3.67;;;;;;;20.86;89.29;93350.72;5088637;28;20583;-90
2021/06/25 01:10:35;;;;;;;5.22;3.55;;;;;;;20.59;89.68;93317.97;5089190;28;20047;-89
2021/06/25 01:13:02;;;;;;;6.80;3.22;;;;;;;20.75;90.51;93351.81;5092306;28;20048;-90
2021/06/25 01:15:30;;;;;;;7.15;3.90;;;;;;;20.67;90.31;93353.16;5092536;28;20055;-89
2021/06/25 01:17:57;;;;;;;7.22;3.33;;;;;;;20.43;89.88;93312.06;5091816;28;20056;-89
2021/06/25 01:20:26;;;;;;;8.02;4.13;;;;;;;20.35;90.35;93302.16;5091926;28;20052;-89
2021/06/25 01:22:55;;;;;;;12.00;4.25;;;;;;;20.05;90.29;93262.16;5092257;28;20052;-89
2021/06/25 01:25:24;;;;;;;6.55;3.80;;;;;;;20.65;90.79;93355.25;5092219;28;20420;-89
2021/06/25 01:27:52;;;;;;;8.10;3.40;;;;;;;20.28;90.84;93307.69;5092103;28;20420;-89
2021/06/25 01:30:22;;;;;;;10.88;4.28;;;;;;;20.58;90.95;93350.31;5092510;28;20051;-89
2021/06/25 01:32:50;;;;;;;7.28;3.33;;;;;;;20.28;91.13;93312.91;5092183;28;20151;-89
2021/06/25 01:35:17;;;;;;;5.82;3.47;;;;;;;20.53;90.53;93351.16;5091829;28;20055;-90
2021/06/25 01:37:45;;;;;;;12.00;4.80;;;;;;;20.27;90.12;93317.34;5091853;28;20055;-89
2021/06/25 01:40:15;;;;;;;7.85;4.70;;;;;;;20.53;89.41;93342.53;5092942;28;20048;-89
2021/06/25 01:42:43;;;;;;;6.78;3.22;;;;;;;20.50;89.49;93343.84;5091596;28;20044;-89
2021/06/25 01:45:12;;;;;;;6.45;3.50;;;;;;;20.46;89.94;93342.03;5091772;28;20376;-88
2021/06/25 01:47:41;;;;;;;7.38;3.33;;;;;;;20.43;89.82;93341.50;5091607;28;20055;-90
2021/06/25 01:50:10;;;;;;;6.18;3.58;;;;;;;20.07;89.98;93294.72;5091378;28;20390;-88
2021/06/25 01:52:37;;;;;;;8.50;4.13;;;;;;;20.08;90.51;93303.34;5091424;28;20056;-89
2021/06/25 01:55:10;;;;;;;6.30;2.83;;;;;;;20.19;91.12;93322.31;5091349;28;20048;-91
2021/06/25 01:57:39;;;;;;;8.80;4.70;;;;;;;20.22;90.56;93325.19;5092470;28;20044;-91
2021/06/25 02:00:08;;;;;;;8.55;4.13;;;;;;;20.24;90.76;93338.75;5092418;28;20048;-89
2021/06/25 02:02:36;;;;;;;8.35;3.78;;;;;;;20.18;90.80;93333.81;5091672;28;20059;-90
2021/06/25 02:05:03;;;;;;;7.07;3.17;;;;;;;19.77;90.63;93278.88;5091976;28;20057;-90
2021/06/25 02:07:30;;;;;;;10.75;3.63;;;;;;;20.13;90.77;93324.94;5091085;28;20044;-90
2021/06/25 02:09:57;;;;;;;7.28;4.00;;;;;;;19.75;90.73;93264.56;5091521;28;20138;-90
2021/06/25 02:12:31;;;;;;;9.93;3.92;;;;;;;20.03;90.16;93304.13;5091471;28;20048;-93
2021/06/25 02:15:00;;;;;;;5.03;3.42;;;;;;;19.82;90.30;93280.72;5092176;28;20397;-91
2021/06/25 02:17:27;;;;;;;14.27;4.45;;;;;;;20.16;90.79;93328.84;5091604;28;20083;-89
2021/06/25 02:19:54;;;;;;;9.35;4.15;;;;;;;20.16;91.15;93342.69;5091934;28;20059;-90
2021/06/25 02:22:21;;;;;;;7.47;4.60;;;;;;;19.66;91.28;93263.56;5091735;28;20051;-91
2021/06/25 02:25:27;;;;;;;6.93;3.13;;;;;;;20.20;92.39;93345.53;5094265;28;20083;-94
2021/06/25 02:34:39;;;;;;;8.80;3.15;;;;;;;19.79;93.54;93322.94;5095559;28;20538;-91
2021/06/25 02:37:09;;;;;;;8.48;3.40;;;;;;;19.85;94.33;93340.13;5090942;28;20070;-91
2021/06/25 02:50:17;;;;;;;8.55;4.65;;;;;;;18.77;94.16;93236.81;5012663;28;20080;-93
2021/06/25 02:52:46;;;;;;;5.68;2.95;;;;;;;19.08;94.49;93271.44;4998129;28;20148;-93
2021/06/25 02:59:15;;;;;;;8.10;3.33;;;;;;;19.42;95.53;93337.84;5091073;28;20052;-94
2021/06/25 03:01:42;;;;;;;8.93;4.10;;;;;;;18.73;95.07;93241.75;5088843;28;20079;-91
2021/06/25 03:04:13;;;;;;;7.47;3.33;;;;;;;19.05;95.92;93294.63;5090249;28;20131;-94
2021/06/25 03:06:41;;;;;;;5.97;3.47;;;;;;;18.96;96.39;93289.13;5091277;28;20040;-91
2021/06/25 03:09:16;;;;;;;12.00;4.00;;;;;;;19.10;96.64;93299.81;5090965;28;20506;-93
2021/06/25 03:11:43;;;;;;;10.02;3.53;;;;;;;19.30;97.51;93345.91;5092228;28;20048;-92
2021/06/25 03:26:57;;;;;;;7.50;3.77;;;;;;;20.17;93.16;93343.44;5082544;27;1355054;-91
2021/06/25 03:29:24;;;;;;;7.22;4.22;;;;;;;20.09;92.89;93339.56;5108375;28;20044;-91
2021/06/25 03:31:50;;;;;;;15.38;5.28;;;;;;;20.07;93.75;93338.25;5108406;28;20486;-91
2021/06/25 03:34:17;;;;;;;8.27;3.53;;;;;;;20.03;93.75;93340.63;5108243;28;20614;-91
2021/06/25 03:36:44;;;;;;;11.13;4.78;;;;;;;19.98;94.29;93332.81;5108098;28;20078;-90
2021/06/25 03:39:11;;;;;;;18.92;6.53;;;;;;;19.95;96.10;93334.09;5108243;28;20043;-91
2021/06/25 03:41:38;;;;;;;5.05;3.17;;;;;;;19.95;94.67;93336.69;5108127;28;20083;-92
2021/06/25 03:44:06;;;;;;;8.18;4.07;;;;;;;19.99;95.19;93335.16;5108333;28;20824;-92
2021/06/25 03:46:33;;;;;;;9.77;3.95;;;;;;;20.03;95.26;93344.03;5108020;28;20048;-92
2021/06/25 03:49:00;;;;;;;9.45;5.05;;;;;;;19.88;96.84;93344.03;5108045;28;20052;-92
2021/06/25 03:51:27;;;;;;;10.75;5.05;;;;;;;19.92;97.28;93345.06;5107827;28;20143;-91
2021/06/25 03:53:54;;;;;;;8.05;4.70;;;;;;;19.92;96.41;93332.03;5108091;28;20048;-92
2021/06/25 03:56:20;;;;;;;9.43;3.53;;;;;;;20.05;95.14;93333.34;5107916;28;20048;-92
2021/06/25 03:58:49;;;;;;;12.70;4.43;;;;;;;20.16;94.50;93329.66;5107858;28;20105;-94
2021/06/25 04:01:18;;;;;;;10.68;4.40;;;;;;;20.23;92.61;93326.72;5107779;28;20043;-93
2021/06/25 04:03:45;;;;;;;9.98;3.88;;;;;;;20.34;92.67;93342.34;5107553;28;20101;-90
2021/06/25 04:06:12;;;;;;;9.35;4.32;;;;;;;20.31;93.19;93325.41;5107635;28;20048;-90
2021/06/25 04:08:39;;;;;;;8.55;4.25;;;;;;;20.45;91.26;93343.84;5107636;28;20052;-91
2021/06/25 04:11:06;;;;;;;7.47;3.67;;;;;;;20.48;91.40;93348.56;5107526;28;20047;-92
2021/06/25 04:13:34;;;;;;;11.57;4.07;;;;;;;20.63;90.32;93359.94;5107536;28;20098;-91
2021/06/25 04:16:01;;;;;;;5.75;3.63;;;;;;;20.63;91.02;93350.31;5106636;28;20104;-90
2021/06/25 04:18:29;;;;;;;10.02;3.83;;;;;;;20.70;91.03;93356.00;5107378;28;20048;-91
2021/06/25 04:20:59;;;;;;;9.75;5.13;;;;;;;20.76;89.89;93350.75;5107697;28;20048;-91
2021/06/25 04:23:26;;;;;;;7.85;3.50;;;;;;;20.81;89.53;93346.31;5107293;28;20062;-90
2021/06/25 04:25:53;;;;;;;7.68;3.97;;;;;;;20.92;89.96;93352.25;5105237;28;20062;-91
2021/06/25 04:28:21;;;;;;;7.82;3.15;;;;;;;21.01;89.01;93347.25;5093590;28;20089;-89
2021/06/25 04:30:48;;;;;;;9.38;4.80;;;;;;;21.08;88.35;93339.09;5093481;28;20479;-90
2021/06/25 04:33:15;;;;;;;13.38;4.15;;;;;;;21.18;88.26;93333.03;5092239;28;20048;-91
2021/06/25 04:35:44;;;;;;;8.30;4.47;;;;;;;21.25;87.02;93323.06;5076887;28;20055;-90
2021/06/25 04:38:11;;;;;;;6.32;4.03;;;;;;;21.39;87.38;93325.03;5073355;28;20044;-91
2021/06/25 04:40:41;;;;;;;11.90;5.20;;;;;;;21.46;86.55;93328.09;5073225;28;20077;-90
2021/06/25 04:43:09;;;;;;;8.90;4.13;;;;;;;21.59;86.56;93335.31;5073191;28;20052;-91
2021/06/25 04:45:36;;;;;;;6.47;4.20;;;;;;;21.73;85.35;93335.47;5073009;28;20098;-93
2021/06/25 04:48:04;;;;;;;13.55;4.95;;;;;;;21.83;85.67;93334.59;5072970;28;20052;-93
2021/06/25 04:50:31;;;;;;;8.38;3.20;;;;;;;21.87;84.67;93325.13;5072848;28;20063;-94
2021/06/25 04:53:00;;;;;;;8.85;4.03;;;;;;;22.01;83.51;93334.94;5073135;28;20044;-92
2021/06/25 04:55:27;;;;;;;10.63;4.90;;;;;;;22.11;83.85;93328.78;5072777;28;20048;-93
2021/06/25 04:57:55;;;;;;;16.52;4.30;;;;;;;22.21;84.03;93333.91;5073203;28;20385;-92
2021/06/25 05:00:23;;;;;;;10.10;4.25;;;;;;;22.31;83.50;93332.25;5073053;28;20044;-93
2021/06/25 05:02:50;;;;;;;9.57;3.75;;;;;;;22.41;82.37;93340.75;5072937;28;20451;-91
2021/06/25 05:05:18;;;;;;;9.40;4.43;;;;;;;22.42;82.34;93328.44;5072709;28;20040;-91
2021/06/25 05:07:45;;;;;;;7.15;3.60;;;;;;;22.54;81.80;93341.16;5072814;28;20040;-91
2021/06/25 05:10:13;;;;;;;9.57;4.53;;;;;;;22.62;81.83;93327.44;5072691;28;20051;-95
2021/06/25 05:12:40;;;;;;;8.07;4.32;;;;;;;22.80;81.42;93327.72;5072453;28;20048;-90
2021/06/25 05:15:08;;;;;;;14.20;6.28;;;;;;;22.85;81.26;93340.75;5072794;28;20052;-91
2021/06/25 05:17:35;;;;;;;16.52;7.50;;;;;;;22.89;81.25;93339.13;5072731;28;20053;-93
2021/06/25 05:20:02;;;;;;;18.10;7.55;;;;;;;23.02;81.54;93328.97;5072554;28;20060;-91
2021/06/25 05:22:29;;;;;;;23.00;9.63;;;;;;;23.14;82.06;93328.56;5072430;28;20052;-91
2021/06/25 05:24:57;;;;;;;24.70;9.07;;;;;;;23.34;80.51;93330.84;5072315;28;20844;-90
2021/06/25 05:27:25;;;;;;;26.50;10.52;;;;;;;23.57;79.44;93325.81;5072382;28;20044;-91
2021/06/25 05:29:52;;;;;;;28.73;9.38;;;;;;;23.79;78.66;93334.09;5072525;28;20071;-92
2021/06/25 05:32:19;;;;;;;26.13;10.45;;;;;;;23.99;78.02;93332.94;5072338;28;20064;-92
2021/06/25 05:34:46;;;;;;;25.40;11.15;;;;;;;24.14;78.01;93335.31;5072345;28;20044;-91
2021/06/25 05:37:14;;;;;;;37.67;14.27;;;;;;;24.19;77.38;93325.75;5072298;28;20056;-92
2021/06/25 05:39:41;;;;;;;27.95;10.60;;;;;;;24.40;76.66;93334.03;5071021;28;20571;-91
2021/06/25 05:42:08;;;;;;;24.98;10.85;;;;;;;24.60;76.65;93332.81;5072034;28;20048;-91
2021/06/25 05:44:37;;;;;;;25.45;10.25;;;;;;;24.77;76.39;93334.81;5072064;28;20488;-90
2021/06/25 05:47:04;;;;;;;27.08;9.95;;;;;;;24.83;74.42;93325.00;5072178;28;20048;-91
2021/06/25 05:49:31;;;;;;;18.77;7.40;;;;;;;24.94;74.69;93339.47;5072110;28;20106;-89
2021/06/25 05:51:58;;;;;;;16.80;6.50;;;;;;;25.04;74.40;93342.97;5071898;28;20048;-89
2021/06/25 05:54:25;;;;;;;13.80;6.78;;;;;;;25.21;73.41;93337.03;5071882;28;20097;-92
2021/06/25 05:56:52;;;;;;;20.90;6.05;;;;;;;25.37;75.00;93339.31;5071677;28;20450;-90
2021/06/25 05:59:18;;;;;;;10.13;5.90;;;;;;;25.47;73.39;93339.84;5071725;28;20044;-90
2021/06/25 06:01:47;;;;;;;15.75;7.28;;;;;;;25.66;73.00;93341.53;5071771;28;20067;-90
2021/06/25 06:04:14;;;;;;;21.00;7.15;;;;;;;25.66;72.34;93343.38;5071573;28;20052;-89
2021/06/25 06:06:40;;;;;;;18.77;7.50;;;;;;;25.81;72.20;93343.00;5071535;28;20047;-92
2021/06/25 06:09:07;;;;;;;22.42;8.48;;;;;;;26.08;70.38;93341.25;5071581;28;20048;-92
2021/06/25 06:11:34;;;;;;;28.55;8.82;;;;;;;26.32;70.17;93341.97;5071683;28;20048;-92
2021/06/25 06:14:01;;;;;;;17.70;8.27;;;;;;;26.65;68.91;93337.06;5071374;28;20052;-92
2021/06/25 06:16:28;;;;;;;19.73;8.20;;;;;;;26.93;68.19;93341.31;5071390;28;20403;-92
2021/06/25 06:18:56;;;;;;;22.63;10.25;;;;;;;27.28;65.87;93333.41;5071185;28;20059;-91
2021/06/25 06:21:23;;;;;;;28.55;11.25;;;;;;;27.47;63.54;93321.72;5071198;28;20048;-94
2021/06/25 06:32:10;;;;;;;33.60;12.55;;;;;;;29.00;58.38;93317.78;5071234;28;20051;-94
2021/06/25 06:34:39;;;;;;;27.35;10.30;;;;;;;29.32;57.26;93307.56;5071089;28;20045;-95
2021/06/25 06:37:06;;;;;;;19.85;9.02;;;;;;;29.66;55.06;93325.31;5070900;28;20052;-92
2021/06/25 06:39:33;;;;;;;25.17;9.70;;;;;;;29.72;55.30;93324.75;5071033;28;20123;-95
2021/06/25 06:42:00;;;;;;;20.40;8.35;;;;;;;30.17;54.68;93319.75;5070809;28;20049;-93
2021/06/25 06:44:27;;;;;;;20.40;8.02;;;;;;;30.50;52.75;93312.78;5070861;28;20080;-94
2021/06/25 06:46:54;;;;;;;21.83;9.20;;;;;;;30.81;53.67;93316.69;5071062;28;20040;-91
2021/06/25 06:49:21;;;;;;;24.15;10.15;;;;;;;31.08;52.16;93322.38;5070703;28;20118;-92
2021/06/25 06:51:49;;;;;;;19.33;8.82;;;;;;;31.13;51.51;93319.47;5070747;28;20051;-92
2021/06/25 06:54:16;;;;;;;21.90;8.27;;;;;;;31.24;51.03;93321.66;5070810;28;20114;-91
2021/06/25 06:56:42;;;;;;;16.98;7.97;;;;;;;31.18;50.34;93316.59;5070595;28;20393;-92
2021/06/25 06:59:09;;;;;;;18.10;7.07;;;;;;;30.94;51.04;93314.78;5070749;28;20052;-92
2021/06/25 07:01:36;;;;;;;24.77;9.30;;;;;;;30.98;51.58;93317.53;5070775;28;20059;-92
2021/06/25 07:04:05;;;;;;;21.55;9.85;;;;;;;31.00;52.08;93270.25;5070719;28;20484;-93
2021/06/25 07:06:32;;;;;;;18.33;7.55;;;;;;;31.54;49.81;93321.31;5070732;28;20415;-92
2021/06/25 07:09:00;;;;;;;18.08;7.93;;;;;;;32.09;50.44;93310.13;5070763;28;20045;-92
2021/06/25 07:11:27;;;;;;;15.35;7.85;;;;;;;32.31;47.83;93316.72;5070666;28;20049;-87
2021/06/25 07:13:54;;;;;;;18.13;8.88;;;;;;;32.41;48.80;93318.09;5070876;28;20098;-92
2021/06/25 07:16:20;;;;;;;26.27;8.73;;;;;;;32.66;47.45;93315.19;5070556;28;20514;-94
2021/06/25 07:18:47;;;;;;;22.27;9.80;;;;;;;32.85;46.37;93319.03;5070589;28;20056;-93
2021/06/25 07:21:14;;;;;;;29.10;9.50;;;;;;;32.96;46.56;93319.22;5070709;28;20040;-92
2021/06/25 07:23:41;;;;;;;18.80;9.35;;;;;;;33.32;45.35;93326.03;5070451;28;20053;-96
2021/06/25 07:26:09;;;;;;;33.92;11.57;;;;;;;33.34;45.76;93320.38;5070700;28;20060;-94
2021/06/25 07:28:36;;;;;;;29.27;10.05;;;;;;;33.42;43.61;93322.03;5070687;28;20054;-91
2021/06/25 07:31:04;;;;;;;26.98;11.63;;;;;;;33.02;45.28;93313.31;5070473;28;20044;-88
2021/06/25 07:33:31;;;;;;;28.05;11.13;;;;;;;33.09;44.89;93317.22;5070375;28;20101;-90
2021/06/25 07:35:57;;;;;;;21.00;10.68;;;;;;;33.33;43.45;93318.81;5070330;28;20060;-91
2021/06/25 07:38:24;;;;;;;25.58;9.10;;;;;;;32.89;45.10;93311.88;5070360;28;20053;-93
2021/06/25 07:40:51;;;;;;;21.85;8.57;;;;;;;33.08;43.53;93313.78;5070691;28;20044;-86
2021/06/25 07:43:19;;;;;;;17.50;6.50;;;;;;;32.96;42.19;93304.03;5070503;28;20048;-89
2021/06/25 07:45:47;;;;;;;9.65;3.85;;;;;;;33.09;41.69;93304.69;5069764;28;20052;-90
2021/06/25 07:48:13;;;;;;;10.82;3.88;;;;;;;33.55;40.76;93305.94;5090513;28;20116;-85
2021/06/25 07:50:40;;;;;;;16.02;5.38;;;;;;;33.71;36.99;93305.81;5090543;28;20052;-90
2021/06/25 07:53:10;;;;;;;11.82;3.42;;;;;;;33.95;35.83;93303.91;5090410;28;20044;-90
2021/06/25 07:55:42;;;;;;;12.85;4.25;;;;;;;34.11;33.78;93309.13;5090500;28;20606;-91
2021/06/25 07:58:11;;;;;;;11.43;4.13;;;;;;;33.88;34.34;93299.25;5090501;28;20052;-87
2021/06/25 08:00:39;;;;;;;6.55;2.30;;;;;;;34.31;31.48;93299.16;5090380;28;20529;-90
2021/06/25 08:03:06;;;;;;;11.50;3.08;;;;;;;34.69;30.20;93301.97;5093768;28;20139;-90
2021/06/25 08:05:33;;;;;;;7.95;3.10;;;;;;;34.89;30.80;93296.50;5094014;28;20051;-91
2021/06/25 08:08:00;;;;;;;8.13;2.35;;;;;;;34.96;30.35;93299.25;5094272;28;20051;-89
2021/06/25 08:10:27;;;;;;;10.70;3.10;;;;;;;34.65;30.97;93309.13;5094257;28;20131;-87
2021/06/25 08:12:54;;;;;;;5.43;3.15;;;;;;;34.65;30.36;93312.59;5094160;28;20050;-83
2021/06/25 08:15:21;;;;;;;9.38;3.40;;;;;;;34.48;31.44;93310.44;5094101;28;20044;-85
2021/06/25 08:17:49;;;;;;;10.50;3.55;;;;;;;34.71;29.10;93306.94;5094352;28;20453;-82
2021/06/25 08:20:16;;;;;;;10.80;3.08;;;;;;;34.37;31.21;93303.03;5093878;28;20048;-87
2021/06/25 08:22:43;;;;;;;14.77;3.47;;;;;;;34.75;29.39;93305.09;5094288;28;20411;-84
2021/06/25 08:25:10;;;;;;;7.57;3.22;;;;;;;34.70;31.81;93308.06;5093897;28;20055;-88
2021/06/25 08:27:37;;;;;;;8.82;2.60;;;;;;;34.90;32.61;93303.38;5093925;28;20079;-84
2021/06/25 08:30:05;;;;;;;9.98;2.47;;;;;;;35.23;31.04;93304.53;5093586;28;20048;-92
2021/06/25 08:32:31;;;;;;;9.52;3.63;;;;;;;35.43;29.48;93301.66;5093572;28;20048;-89
2021/06/25 08:35:00;;;;;;;12.13;3.42;;;;;;;35.58;30.69;93297.22;5093573;28;20052;-89
2021/06/25 08:37:26;;;;;;;5.88;2.58;;;;;;;36.10;29.69;93302.63;5093624;28;20047;-88
2021/06/25 08:39:53;;;;;;;6.68;2.25;;;;;;;36.08;28.47;93274.75;5093873;28;20048;-87
2021/06/25 08:42:20;;;;;;;6.32;2.75;;;;;;;35.88;30.70;93296.38;5090006;28;20645;-91
2021/06/25 08:44:47;;;;;;;7.93;3.17;;;;;;;36.11;29.16;93301.53;5082535;28;20054;-89
2021/06/25 08:47:14;;;;;;;8.45;2.97;;;;;;;36.33;29.17;93303.59;5081683;28;20490;-90
2021/06/25 08:49:47;;;;;;;13.55;2.38;;;;;;;36.54;27.64;93305.63;5081901;28;20055;-87
2021/06/25 08:52:15;;;;;;;19.23;4.45;;;;;;;36.50;28.80;93297.59;5083838;28;20541;-87
2021/06/25 08:54:42;;;;;;;5.40;1.75;;;;;;;36.86;28.61;93304.28;5083735;28;20418;-92
2021/06/25 08:57:09;;;;;;;8.82;3.47;;;;;;;35.98;27.41;93302.94;5082187;28;20049;-85
2021/06/25 08:59:36;;;;;;;9.52;3.25;;;;;;;36.03;29.08;93304.50;5076295;28;20204;-88
2021/06/25 09:02:03;;;;;;;11.77;3.10;;;;;;;36.29;27.01;93294.78;5082063;28;20049;-85
2021/06/25 09:04:31;;;;;;;7.72;2.90;;;;;;;35.92;27.61;93301.75;5080500;28;20496;-83
2021/06/25 09:06:58;;;;;;;6.97;2.10;;;;;;;35.06;29.10;93308.50;5080327;28;20040;-82
2021/06/25 09:09:38;;;;;;;7.43;1.95;;;;;;;35.01;28.33;93282.13;5081997;28;20052;-85
2021/06/25 09:12:16;;;;;;;12.35;2.97;;;;;;;35.95;29.83;93298.31;5082870;28;20132;-89
2021/06/25 09:15:04;;;;;;;4.90;2.60;;;;;;;36.62;28.51;93298.44;5083008;28;20411;-91
2021/06/25 09:17:32;;;;;;;8.27;2.70;;;;;;;36.86;26.76;93302.38;5083638;28;20048;-84
2021/06/25 09:19:59;;;;;;;8.38;2.97;;;;;;;36.04;25.50;93298.03;5082536;28;20041;-84
2021/06/25 09:22:26;;;;;;;6.63;2.47;;;;;;;36.64;27.10;93293.47;5082493;28;20052;-87
2021/06/25 09:25:03;;;;;;;7.43;2.17;;;;;;;36.42;26.60;93300.59;5078840;28;20408;-83
2021/06/25 09:27:33;;;;;;;4.95;1.60;;;;;;;36.43;26.04;93283.41;5079182;28;20049;-87
2021/06/25 09:30:06;;;;;;;5.28;1.92;;;;;;;36.11;27.36;93298.06;5083738;28;20036;-82
2021/06/25 09:32:37;;;;;;;5.50;1.60;;;;;;;35.78;28.47;93294.38;5092670;28;20052;-86
2021/06/25 09:35:16;;;;;;;9.68;1.73;;;;;;;36.34;27.30;93281.06;5092342;28;20052;-85
2021/06/25 09:37:44;;;;;;;9.98;3.65;;;;;;;35.84;28.81;93280.31;5092599;28;20155;-83
2021/06/25 09:40:14;;;;;;;11.10;3.72;;;;;;;35.57;29.98;93288.44;5092324;28;20046;-83
2021/06/25 09:42:43;;;;;;;10.60;3.13;;;;;;;35.59;29.33;93293.44;5079411;28;20049;-83
2021/06/25 09:45:13;;;;;;;10.77;2.10;;;;;;;35.93;28.20;93281.91;5085092;28;20044;-86
2021/06/25 09:47:41;;;;;;;4.60;1.80;;;;;;;36.05;27.11;93272.81;5092118;28;20097;-85
2021/06/25 09:50:12;;;;;;;20.17;2.75;;;;;;;36.59;28.05;93285.75;5092146;28;20052;-89
2021/06/25 09:52:50;;;;;;;5.03;2.00;;;;;;;36.93;28.66;93271.41;5088922;28;20407;-90
2021/06/25 09:55:20;;;;;;;4.40;2.00;;;;;;;37.52;28.15;93278.47;5092075;28;20495;-89
2021/06/25 09:58:23;;;;;;;5.90;2.47;;;;;;;37.82;26.83;93272.75;5091861;28;20052;-90
2021/06/25 10:03:42;;;;;;;10.30;2.72;;;;;;;38.00;24.40;93263.19;5092103;28;20058;-84
2021/06/25 10:06:13;;;;;;;14.80;3.17;;;;;;;37.36;25.71;93265.44;5091861;28;20040;-81
2021/06/25 10:08:41;;;;;;;5.65;1.65;;;;;;;36.51;26.90;93268.94;5091829;28;20399;-86
2021/06/25 10:11:09;;;;;;;5.38;2.10;;;;;;;36.87;28.82;93266.44;5091932;28;20067;-87
2021/06/25 10:13:38;;;;;;;6.32;2.28;;;;;;;36.42;28.93;93263.16;5092268;28;20044;-83
2021/06/25 10:16:06;;;;;;;6.85;1.85;;;;;;;36.63;29.09;93259.81;5091657;28;20047;-87
2021/06/25 10:18:38;;;;;;;7.70;2.00;;;;;;;37.00;28.38;93248.13;5091652;28;20044;-86
2021/06/25 10:21:07;;;;;;;3.10;1.38;;;;;;;37.35;28.57;93253.19;5091526;28;20479;-82
2021/06/25 10:23:36;;;;;;;8.65;2.33;;;;;;;37.50;28.74;93259.31;5091627;28;20517;-88
2021/06/25 10:26:07;;;;;;;8.57;2.50;;;;;;;37.86;28.44;93245.19;5091089;28;20059;-86
2021/06/25 10:28:36;;;;;;;8.25;2.40;;;;;;;38.10;27.51;93254.41;5091610;28;20054;-86
2021/06/25 10:31:04;;;;;;;6.57;2.00;;;;;;;37.78;25.92;93245.22;5091337;28;20168;-83
2021/06/25 10:33:31;;;;;;;8.18;1.75;;;;;;;37.26;26.61;93240.91;5091389;28;20055;-82
2021/06/25 10:36:01;;;;;;;6.78;2.40;;;;;;;37.46;28.38;93240.56;5091305;28;20087;-89
2021/06/25 10:38:30;;;;;;;6.15;1.98;;;;;;;37.97;27.74;93241.38;5091063;28;20514;-85
2021/06/25 10:40:59;;;;;;;6.28;1.52;;;;;;;38.35;27.17;93245.53;5091318;28;20052;-90
2021/06/25 10:43:49;;;;;;;8.43;1.58;;;;;;;38.27;25.97;93247.44;5091348;28;20400;-81
2021/06/25 10:46:35;;;;;;;9.75;2.05;;;;;;;38.17;25.52;93240.97;5091552;28;20044;-82
2021/06/25 10:49:07;;;;;;;5.82;2.00;;;;;;;37.06;25.10;93232.44;5091233;28;20506;-83
2021/06/25 10:51:35;;;;;;;4.03;2.35;;;;;;;37.25;25.37;93226.00;5091247;28;20097;-83
2021/06/25 10:54:10;;;;;;;5.10;2.15;;;;;;;37.47;26.39;93222.59;5091097;28;20105;-82
2021/06/25 10:56:37;;;;;;;;;;;;;;;37.73;26.04;93218.78;5088112;28;20048;-84
2021/06/25 10:59:25;;;;;;;6.35;1.55;;;;;;;38.21;25.42;93212.22;5091104;28;20442;-86
2021/06/25 11:01:54;;;;;;;9.02;2.25;;;;;;;38.52;25.37;93219.03;5089630;28;20126;-86
2021/06/25 11:04:35;;;;;;;5.43;2.33;;;;;;;38.45;24.23;93219.84;5091064;28;20479;-92
2021/06/25 11:07:05;;;;;;;6.05;1.40;;;;;;;38.50;23.85;93206.03;5090908;28;20048;-87
2021/06/25 11:09:56;;;;;;;16.48;2.58;;;;;;;38.35;23.93;93203.38;5090456;28;20059;-89
2021/06/25 11:12:25;;;;;;;5.93;1.80;;;;;;;38.39;25.25;93203.34;5090865;28;20329;-80
2021/06/25 11:14:56;;;;;;;10.38;3.28;;;;;;;38.59;22.10;93205.63;5090842;28;20056;-90
2021/06/25 11:17:48;;;;;;;4.93;1.83;;;;;;;38.63;20.76;93207.13;5090760;28;20063;-83
2021/06/25 11:20:19;;;;;;;10.63;2.75;;;;;;;38.65;22.87;93211.34;5090808;28;20130;-86
2021/06/25 11:22:57;;;;;;;8.90;2.03;;;;;;;38.50;22.29;93212.13;5086631;28;20105;-81
2021/06/25 11:25:38;;;;;;;6.30;2.95;;;;;;;38.86;22.01;93211.25;5081540;28;20056;-89
2021/06/25 11:28:19;;;;;;;5.80;1.33;;;;;;;38.36;22.02;93201.47;5090866;28;20052;-86
2021/06/25 11:31:03;;;;;;;5.25;1.33;;;;;;;37.86;21.71;93202.31;5090907;28;20052;-80
2021/06/25 11:33:41;;;;;;;5.15;2.05;;;;;;;37.89;20.80;93202.31;5089922;28;20131;-83
2021/06/25 11:36:22;;;;;;;7.85;2.05;;;;;;;37.81;21.48;93206.91;5085608;28;20048;-83
2021/06/25 11:39:08;;;;;;;13.25;2.15;;;;;;;37.63;20.52;93206.94;5074434;28;20053;-81
2021/06/25 11:41:37;;;;;;;6.30;1.95;;;;;;;37.01;22.13;93204.13;5082036;28;20435;-83
2021/06/25 11:44:10;;;;;;;9.63;2.55;;;;;;;36.94;22.04;93209.47;5094480;28;20518;-81
2021/06/25 11:46:40;;;;;;;7.88;2.05;;;;;;;36.57;21.77;93200.56;5094554;28;20056;-83
2021/06/25 11:49:07;;;;;;;4.30;1.25;;;;;;;36.35;22.62;93200.47;5094682;28;20051;-90
2021/06/25 11:51:37;;;;;;;3.88;1.35;;;;;;;36.89;22.27;93202.56;5094518;28;20052;-88
2021/06/25 11:54:05;;;;;;;6.78;1.48;;;;;;;37.29;21.38;93177.78;5094367;28;20047;-87
2021/06/25 11:56:32;;;;;;;4.05;1.60;;;;;;;37.77;20.03;93190.06;5094448;28;20044;-88
2021/06/25 11:59:01;;;;;;;7.30;1.63;;;;;;;37.98;20.72;93191.19;5094206;28;20445;-82
2021/06/25 12:01:29;;;;;;;4.70;1.35;;;;;;;37.54;20.97;93190.44;5094532;28;20044;-82
2021/06/25 12:03:58;;;;;;;9.95;1.75;;;;;;;37.80;20.61;93191.97;5094510;28;20052;-89
2021/06/25 12:06:26;;;;;;;4.72;1.13;;;;;;;38.12;20.71;93189.66;5094218;28;20048;-85
2021/06/25 12:08:55;;;;;;;6.13;1.27;;;;;;;38.31;20.63;93191.13;5094243;28;20089;-88
2021/06/25 12:11:23;;;;;;;9.48;3.03;;;;;;;38.59;19.97;93187.59;5094183;28;20408;-93
2021/06/25 12:14:02;;;;;;;5.07;0.82;;;;;;;38.13;19.80;93181.19;5094191;28;20051;-84
2021/06/25 12:16:29;;;;;;;4.32;1.48;;;;;;;37.32;21.77;93184.28;5094323;28;20048;-87
2021/06/25 12:18:58;;;;;;;3.17;0.75;;;;;;;37.85;19.17;93179.34;5093852;28;20059;-84
2021/06/25 12:21:26;;;;;;;6.00;2.13;;;;;;;38.08;20.97;93168.22;5094350;28;20071;-80
2021/06/25 12:23:56;;;;;;;6.15;1.77;;;;;;;38.25;19.63;93184.63;5093791;28;20491;-85